sensor_id;sensor_type;location;lat;lon;timestamp;P1;durP1;ratioP1;P2;durP2;ratioP2
13204;SDS011;6667;52.634;9.226;2023-01-01T00:00:58;9.83;;;4.23;;
13204;SDS011;6667;52.634;9.226;2023-01-01T00:03:31;9.20;;;4.93;;
13204;SDS011;6667;52.634;9.226;2023-01-01T00:05:58;11.87;;;4.17;;
13204;SDS011;6667;52.634;9.226;2023-01-01T00:08:29;6.30;;;3.33;;
13204;SDS011;6667;52.634;9.226;2023-01-01T00:10:58;8.00;;;3.80;;
13204;SDS011;6667;52.634;9.226;2023-01-01T00:13:24;6.23;;;3.13;;
13204;SDS011;6667;52.634;9.226;2023-01-01T00:15:51;6.90;;;3.87;;
13204;SDS011;6667;52.634;9.226;2023-01-01T00:18:18;8.87;;;3.73;;
13204;SDS011;6667;52.634;9.226;2023-01-01T00:20:46;12.43;;;3.67;;
13204;SDS011;6667;52.634;9.226;2023-01-01T00:23:12;5.47;;;3.43;;
13204;SDS011;6667;52.634;9.226;2023-01-01T00:25:39;10.23;;;3.87;;
13204;SDS011;6667;52.634;9.226;2023-01-01T00:28:06;9.83;;;4.40;;
13204;SDS011;6667;52.634;9.226;2023-01-01T00:30:33;10.90;;;5.03;;
13204;SDS011;6667;52.634;9.226;2023-01-01T00:33:00;13.40;;;4.50;;
13204;SDS011;6667;52.634;9.226;2023-01-01T00:35:27;11.53;;;5.00;;
13204;SDS011;6667;52.634;9.226;2023-01-01T00:37:55;10.57;;;4.80;;
13204;SDS011;6667;52.634;9.226;2023-01-01T00:40:21;10.80;;;4.57;;
13204;SDS011;6667;52.634;9.226;2023-01-01T00:42:48;12.57;;;5.00;;
13204;SDS011;6667;52.634;9.226;2023-01-01T00:45:15;14.77;;;4.47;;
13204;SDS011;6667;52.634;9.226;2023-01-01T00:47:41;8.37;;;4.23;;
13204;SDS011;6667;52.634;9.226;2023-01-01T00:50:08;7.20;;;4.37;;
13204;SDS011;6667;52.634;9.226;2023-01-01T00:52:35;4.23;;;3.03;;
13204;SDS011;6667;52.634;9.226;2023-01-01T00:55:03;13.40;;;4.30;;
13204;SDS011;6667;52.634;9.226;2023-01-01T00:57:30;11.43;;;4.77;;
13204;SDS011;6667;52.634;9.226;2023-01-01T00:59:56;13.73;;;5.10;;
13204;SDS011;6667;52.634;9.226;2023-01-01T01:02:23;9.10;;;4.23;;
13204;SDS011;6667;52.634;9.226;2023-01-01T01:04:49;8.87;;;4.03;;
13204;SDS011;6667;52.634;9.226;2023-01-01T01:07:16;7.10;;;3.77;;
13204;SDS011;6667;52.634;9.226;2023-01-01T01:09:43;6.10;;;3.73;;
13204;SDS011;6667;52.634;9.226;2023-01-01T01:12:11;6.20;;;3.40;;
13204;SDS011;6667;52.634;9.226;2023-01-01T01:14:37;10.93;;;3.57;;
13204;SDS011;6667;52.634;9.226;2023-01-01T01:17:04;9.47;;;4.13;;
13204;SDS011;6667;52.634;9.226;2023-01-01T01:19:30;10.97;;;3.60;;
13204;SDS011;6667;52.634;9.226;2023-01-01T01:21:57;7.73;;;3.27;;
13204;SDS011;6667;52.634;9.226;2023-01-01T01:24:23;11.73;;;4.03;;
13204;SDS011;6667;52.634;9.226;2023-01-01T01:26:51;9.60;;;3.27;;
13204;SDS011;6667;52.634;9.226;2023-01-01T01:29:19;9.73;;;4.00;;
13204;SDS011;6667;52.634;9.226;2023-01-01T01:31:46;9.93;;;3.67;;
13204;SDS011;6667;52.634;9.226;2023-01-01T01:34:12;10.63;;;3.80;;
13204;SDS011;6667;52.634;9.226;2023-01-01T01:36:39;9.97;;;4.30;;
13204;SDS011;6667;52.634;9.226;2023-01-01T01:39:07;12.60;;;4.73;;
13204;SDS011;6667;52.634;9.226;2023-01-01T01:41:35;10.43;;;4.10;;
13204;SDS011;6667;52.634;9.226;2023-01-01T01:44:03;8.27;;;4.10;;
13204;SDS011;6667;52.634;9.226;2023-01-01T01:46:52;7.37;;;4.10;;
13204;SDS011;6667;52.634;9.226;2023-01-01T01:49:20;9.93;;;4.03;;
13204;SDS011;6667;52.634;9.226;2023-01-01T01:51:52;6.90;;;3.87;;
13204;SDS011;6667;52.634;9.226;2023-01-01T01:54:20;7.87;;;4.20;;
13204;SDS011;6667;52.634;9.226;2023-01-01T01:56:50;10.13;;;3.90;;
13204;SDS011;6667;52.634;9.226;2023-01-01T01:59:19;9.50;;;4.37;;
13204;SDS011;6667;52.634;9.226;2023-01-01T02:01:47;13.43;;;4.83;;
13204;SDS011;6667;52.634;9.226;2023-01-01T02:04:15;7.80;;;4.50;;
13204;SDS011;6667;52.634;9.226;2023-01-01T02:06:42;7.80;;;5.13;;
13204;SDS011;6667;52.634;9.226;2023-01-01T02:09:10;9.53;;;4.47;;
13204;SDS011;6667;52.634;9.226;2023-01-01T02:11:36;7.53;;;5.23;;
13204;SDS011;6667;52.634;9.226;2023-01-01T02:14:03;13.73;;;4.73;;
13204;SDS011;6667;52.634;9.226;2023-01-01T02:16:32;8.60;;;5.20;;
13204;SDS011;6667;52.634;9.226;2023-01-01T02:19:06;10.67;;;5.00;;
13204;SDS011;6667;52.634;9.226;2023-01-01T02:21:43;13.47;;;6.27;;
13204;SDS011;6667;52.634;9.226;2023-01-01T02:24:31;10.83;;;6.00;;
13204;SDS011;6667;52.634;9.226;2023-01-01T02:27:08;12.97;;;6.67;;
13204;SDS011;6667;52.634;9.226;2023-01-01T02:29:44;14.60;;;6.40;;
13204;SDS011;6667;52.634;9.226;2023-01-01T02:32:14;11.63;;;7.23;;
13204;SDS011;6667;52.634;9.226;2023-01-01T02:34:47;15.27;;;7.07;;
13204;SDS011;6667;52.634;9.226;2023-01-01T02:37:18;12.30;;;6.80;;
13204;SDS011;6667;52.634;9.226;2023-01-01T02:39:47;8.57;;;6.00;;
13204;SDS011;6667;52.634;9.226;2023-01-01T02:42:17;12.13;;;7.30;;
13204;SDS011;6667;52.634;9.226;2023-01-01T02:44:47;13.00;;;6.77;;
13204;SDS011;6667;52.634;9.226;2023-01-01T02:47:18;15.50;;;7.37;;
13204;SDS011;6667;52.634;9.226;2023-01-01T02:49:52;10.40;;;6.43;;
13204;SDS011;6667;52.634;9.226;2023-01-01T02:52:32;14.03;;;7.57;;
13204;SDS011;6667;52.634;9.226;2023-01-01T02:55:13;9.13;;;6.83;;
13204;SDS011;6667;52.634;9.226;2023-01-01T02:57:48;11.77;;;7.17;;
13204;SDS011;6667;52.634;9.226;2023-01-01T03:00:20;13.43;;;6.23;;
13204;SDS011;6667;52.634;9.226;2023-01-01T03:03:07;19.77;;;6.60;;
13204;SDS011;6667;52.634;9.226;2023-01-01T03:05:42;11.33;;;5.87;;
13204;SDS011;6667;52.634;9.226;2023-01-01T03:08:34;11.77;;;6.30;;
13204;SDS011;6667;52.634;9.226;2023-01-01T03:11:08;14.43;;;6.77;;
13204;SDS011;6667;52.634;9.226;2023-01-01T03:13:39;13.33;;;6.30;;
13204;SDS011;6667;52.634;9.226;2023-01-01T03:16:15;11.50;;;6.80;;
13204;SDS011;6667;52.634;9.226;2023-01-01T03:18:48;12.13;;;5.73;;
13204;SDS011;6667;52.634;9.226;2023-01-01T03:21:34;13.90;;;6.30;;
13204;SDS011;6667;52.634;9.226;2023-01-01T03:24:05;11.63;;;6.33;;
13204;SDS011;6667;52.634;9.226;2023-01-01T03:26:34;14.37;;;6.40;;
13204;SDS011;6667;52.634;9.226;2023-01-01T03:29:02;17.43;;;6.83;;
13204;SDS011;6667;52.634;9.226;2023-01-01T03:31:35;13.53;;;5.93;;
13204;SDS011;6667;52.634;9.226;2023-01-01T03:34:05;11.20;;;5.47;;
13204;SDS011;6667;52.634;9.226;2023-01-01T03:36:37;10.40;;;6.70;;
13204;SDS011;6667;52.634;9.226;2023-01-01T03:39:07;8.40;;;5.53;;
13204;SDS011;6667;52.634;9.226;2023-01-01T03:41:38;11.33;;;6.27;;
13204;SDS011;6667;52.634;9.226;2023-01-01T03:44:10;10.50;;;6.13;;
13204;SDS011;6667;52.634;9.226;2023-01-01T03:46:44;14.53;;;6.30;;
13204;SDS011;6667;52.634;9.226;2023-01-01T03:49:11;14.53;;;6.07;;
13204;SDS011;6667;52.634;9.226;2023-01-01T03:51:47;14.23;;;6.57;;
13204;SDS011;6667;52.634;9.226;2023-01-01T03:54:26;6.97;;;5.07;;
13204;SDS011;6667;52.634;9.226;2023-01-01T03:57:01;8.97;;;5.83;;
13204;SDS011;6667;52.634;9.226;2023-01-01T03:59:35;15.63;;;5.67;;
13204;SDS011;6667;52.634;9.226;2023-01-01T04:02:07;8.47;;;5.77;;
13204;SDS011;6667;52.634;9.226;2023-01-01T04:04:36;12.40;;;5.13;;
13204;SDS011;6667;52.634;9.226;2023-01-01T04:07:03;13.23;;;5.77;;
13204;SDS011;6667;52.634;9.226;2023-01-01T04:09:30;13.03;;;5.70;;
13204;SDS011;6667;52.634;9.226;2023-01-01T04:11:59;10.20;;;5.07;;
13204;SDS011;6667;52.634;9.226;2023-01-01T04:14:31;10.40;;;4.90;;
13204;SDS011;6667;52.634;9.226;2023-01-01T04:16:59;10.77;;;5.30;;
13204;SDS011;6667;52.634;9.226;2023-01-01T04:19:28;10.60;;;4.83;;
13204;SDS011;6667;52.634;9.226;2023-01-01T04:21:55;9.93;;;5.20;;
13204;SDS011;6667;52.634;9.226;2023-01-01T04:24:22;9.77;;;4.97;;
13204;SDS011;6667;52.634;9.226;2023-01-01T04:26:48;11.53;;;5.40;;
13204;SDS011;6667;52.634;9.226;2023-01-01T04:29:16;10.07;;;4.43;;
13204;SDS011;6667;52.634;9.226;2023-01-01T04:31:43;10.07;;;4.63;;
13204;SDS011;6667;52.634;9.226;2023-01-01T04:34:09;10.03;;;4.00;;
13204;SDS011;6667;52.634;9.226;2023-01-01T04:36:37;6.83;;;4.00;;
13204;SDS011;6667;52.634;9.226;2023-01-01T04:39:04;9.63;;;3.80;;
13204;SDS011;6667;52.634;9.226;2023-01-01T04:41:31;7.33;;;4.27;;
13204;SDS011;6667;52.634;9.226;2023-01-01T04:43:58;5.80;;;3.33;;
13204;SDS011;6667;52.634;9.226;2023-01-01T04:46:25;8.37;;;3.30;;
13204;SDS011;6667;52.634;9.226;2023-01-01T04:48:52;11.20;;;3.60;;
13204;SDS011;6667;52.634;9.226;2023-01-01T04:51:19;4.50;;;3.77;;
13204;SDS011;6667;52.634;9.226;2023-01-01T04:53:47;7.83;;;3.87;;
13204;SDS011;6667;52.634;9.226;2023-01-01T04:56:15;9.70;;;3.70;;
13204;SDS011;6667;52.634;9.226;2023-01-01T04:58:43;8.33;;;3.43;;
13204;SDS011;6667;52.634;9.226;2023-01-01T05:01:13;6.67;;;3.37;;
13204;SDS011;6667;52.634;9.226;2023-01-01T05:03:41;8.93;;;3.47;;
13204;SDS011;6667;52.634;9.226;2023-01-01T05:06:09;7.00;;;2.90;;
13204;SDS011;6667;52.634;9.226;2023-01-01T05:08:38;3.60;;;2.43;;
13204;SDS011;6667;52.634;9.226;2023-01-01T05:11:07;10.03;;;3.60;;
13204;SDS011;6667;52.634;9.226;2023-01-01T05:13:35;6.73;;;3.23;;
13204;SDS011;6667;52.634;9.226;2023-01-01T05:16:02;7.70;;;2.80;;
13204;SDS011;6667;52.634;9.226;2023-01-01T05:18:30;7.27;;;2.73;;
13204;SDS011;6667;52.634;9.226;2023-01-01T05:20:58;6.00;;;3.23;;
13204;SDS011;6667;52.634;9.226;2023-01-01T05:23:26;5.03;;;2.40;;
13204;SDS011;6667;52.634;9.226;2023-01-01T05:25:52;6.97;;;2.57;;
13204;SDS011;6667;52.634;9.226;2023-01-01T05:28:20;8.10;;;3.17;;
13204;SDS011;6667;52.634;9.226;2023-01-01T05:30:48;4.37;;;3.27;;
13204;SDS011;6667;52.634;9.226;2023-01-01T05:33:15;5.60;;;2.83;;
13204;SDS011;6667;52.634;9.226;2023-01-01T05:35:42;4.83;;;2.67;;
13204;SDS011;6667;52.634;9.226;2023-01-01T05:38:09;4.97;;;1.93;;
13204;SDS011;6667;52.634;9.226;2023-01-01T05:40:37;7.03;;;2.20;;
13204;SDS011;6667;52.634;9.226;2023-01-01T05:43:04;7.63;;;1.90;;
13204;SDS011;6667;52.634;9.226;2023-01-01T05:45:32;4.83;;;1.80;;
13204;SDS011;6667;52.634;9.226;2023-01-01T05:47:59;4.87;;;2.10;;
13204;SDS011;6667;52.634;9.226;2023-01-01T05:50:26;5.80;;;1.93;;
13204;SDS011;6667;52.634;9.226;2023-01-01T05:52:53;6.93;;;2.17;;
13204;SDS011;6667;52.634;9.226;2023-01-01T05:55:20;6.17;;;1.70;;
13204;SDS011;6667;52.634;9.226;2023-01-01T05:57:46;4.97;;;1.90;;
13204;SDS011;6667;52.634;9.226;2023-01-01T06:00:13;5.97;;;1.80;;
13204;SDS011;6667;52.634;9.226;2023-01-01T06:02:42;5.33;;;2.10;;
13204;SDS011;6667;52.634;9.226;2023-01-01T06:05:08;6.47;;;2.07;;
13204;SDS011;6667;52.634;9.226;2023-01-01T06:07:35;2.13;;;1.40;;
13204;SDS011;6667;52.634;9.226;2023-01-01T06:10:02;4.43;;;1.80;;
13204;SDS011;6667;52.634;9.226;2023-01-01T06:12:29;3.47;;;1.60;;
13204;SDS011;6667;52.634;9.226;2023-01-01T06:14:55;6.37;;;1.83;;
13204;SDS011;6667;52.634;9.226;2023-01-01T06:17:22;2.20;;;1.33;;
13204;SDS011;6667;52.634;9.226;2023-01-01T06:19:50;2.43;;;1.57;;
13204;SDS011;6667;52.634;9.226;2023-01-01T06:22:17;3.57;;;1.40;;
13204;SDS011;6667;52.634;9.226;2023-01-01T06:24:43;4.37;;;1.60;;
13204;SDS011;6667;52.634;9.226;2023-01-01T06:27:10;8.53;;;3.00;;
13204;SDS011;6667;52.634;9.226;2023-01-01T06:29:36;6.13;;;1.73;;
13204;SDS011;6667;52.634;9.226;2023-01-01T06:32:03;3.57;;;1.60;;
13204;SDS011;6667;52.634;9.226;2023-01-01T06:34:30;5.23;;;1.43;;
13204;SDS011;6667;52.634;9.226;2023-01-01T06:36:58;5.83;;;1.77;;
13204;SDS011;6667;52.634;9.226;2023-01-01T06:39:25;14.10;;;1.63;;
13204;SDS011;6667;52.634;9.226;2023-01-01T06:41:51;5.23;;;1.63;;
13204;SDS011;6667;52.634;9.226;2023-01-01T06:44:18;2.97;;;1.23;;
13204;SDS011;6667;52.634;9.226;2023-01-01T06:46:45;4.43;;;1.47;;
13204;SDS011;6667;52.634;9.226;2023-01-01T06:49:11;3.97;;;1.47;;
13204;SDS011;6667;52.634;9.226;2023-01-01T06:51:38;3.57;;;1.80;;
13204;SDS011;6667;52.634;9.226;2023-01-01T06:54:08;2.93;;;1.30;;
13204;SDS011;6667;52.634;9.226;2023-01-01T06:56:35;4.27;;;1.67;;
13204;SDS011;6667;52.634;9.226;2023-01-01T06:59:02;2.50;;;1.20;;
13204;SDS011;6667;52.634;9.226;2023-01-01T07:01:30;2.47;;;1.20;;
13204;SDS011;6667;52.634;9.226;2023-01-01T07:04:00;2.73;;;1.20;;
13204;SDS011;6667;52.634;9.226;2023-01-01T07:06:28;1.83;;;1.27;;
13204;SDS011;6667;52.634;9.226;2023-01-01T07:08:56;4.57;;;2.00;;
13204;SDS011;6667;52.634;9.226;2023-01-01T07:11:24;4.33;;;1.53;;
13204;SDS011;6667;52.634;9.226;2023-01-01T07:13:51;5.47;;;2.13;;
13204;SDS011;6667;52.634;9.226;2023-01-01T07:16:18;5.60;;;1.90;;
13204;SDS011;6667;52.634;9.226;2023-01-01T07:18:45;4.83;;;1.70;;
13204;SDS011;6667;52.634;9.226;2023-01-01T07:24:05;4.07;;;1.17;;
13204;SDS011;6667;52.634;9.226;2023-01-01T07:26:36;4.33;;;1.93;;
13204;SDS011;6667;52.634;9.226;2023-01-01T07:29:03;1.97;;;1.13;;
13204;SDS011;6667;52.634;9.226;2023-01-01T07:31:32;3.83;;;1.20;;
13204;SDS011;6667;52.634;9.226;2023-01-01T07:33:59;6.43;;;1.50;;
13204;SDS011;6667;52.634;9.226;2023-01-01T07:36:26;1.97;;;1.30;;
13204;SDS011;6667;52.634;9.226;2023-01-01T07:38:52;7.17;;;1.57;;
13204;SDS011;6667;52.634;9.226;2023-01-01T07:41:19;4.50;;;1.30;;
13204;SDS011;6667;52.634;9.226;2023-01-01T07:43:47;3.77;;;1.53;;
13204;SDS011;6667;52.634;9.226;2023-01-01T07:46:14;4.87;;;1.37;;
13204;SDS011;6667;52.634;9.226;2023-01-01T07:48:42;1.27;;;1.17;;
13204;SDS011;6667;52.634;9.226;2023-01-01T07:51:09;3.10;;;1.43;;
13204;SDS011;6667;52.634;9.226;2023-01-01T07:53:36;4.70;;;1.77;;
13204;SDS011;6667;52.634;9.226;2023-01-01T07:56:03;6.17;;;1.37;;
13204;SDS011;6667;52.634;9.226;2023-01-01T07:58:30;1.90;;;1.03;;
13204;SDS011;6667;52.634;9.226;2023-01-01T08:00:58;6.00;;;1.60;;
13204;SDS011;6667;52.634;9.226;2023-01-01T08:03:24;4.10;;;1.47;;
13204;SDS011;6667;52.634;9.226;2023-01-01T08:05:51;2.30;;;1.20;;
13204;SDS011;6667;52.634;9.226;2023-01-01T08:08:18;5.30;;;1.60;;
13204;SDS011;6667;52.634;9.226;2023-01-01T08:10:44;2.40;;;1.30;;
13204;SDS011;6667;52.634;9.226;2023-01-01T08:13:11;3.80;;;1.63;;
13204;SDS011;6667;52.634;9.226;2023-01-01T08:15:38;2.40;;;1.33;;
13204;SDS011;6667;52.634;9.226;2023-01-01T08:18:06;4.73;;;1.80;;
13204;SDS011;6667;52.634;9.226;2023-01-01T08:20:32;5.63;;;1.87;;
13204;SDS011;6667;52.634;9.226;2023-01-01T08:22:59;4.70;;;1.87;;
13204;SDS011;6667;52.634;9.226;2023-01-01T08:25:26;1.70;;;1.20;;
13204;SDS011;6667;52.634;9.226;2023-01-01T08:27:52;3.73;;;1.33;;
13204;SDS011;6667;52.634;9.226;2023-01-01T08:30:19;5.33;;;1.70;;
13204;SDS011;6667;52.634;9.226;2023-01-01T08:32:46;3.20;;;1.70;;
13204;SDS011;6667;52.634;9.226;2023-01-01T08:35:14;15.00;;;3.27;;
13204;SDS011;6667;52.634;9.226;2023-01-01T08:37:41;4.53;;;1.73;;
13204;SDS011;6667;52.634;9.226;2023-01-01T08:40:09;4.60;;;2.00;;
13204;SDS011;6667;52.634;9.226;2023-01-01T08:42:36;3.43;;;1.90;;
13204;SDS011;6667;52.634;9.226;2023-01-01T08:45:03;2.77;;;1.40;;
13204;SDS011;6667;52.634;9.226;2023-01-01T08:47:31;4.17;;;1.40;;
13204;SDS011;6667;52.634;9.226;2023-01-01T08:49:57;3.10;;;1.70;;
13204;SDS011;6667;52.634;9.226;2023-01-01T08:52:25;3.13;;;1.87;;
13204;SDS011;6667;52.634;9.226;2023-01-01T08:54:52;5.10;;;1.80;;
13204;SDS011;6667;52.634;9.226;2023-01-01T08:57:18;3.97;;;1.50;;
13204;SDS011;6667;52.634;9.226;2023-01-01T08:59:45;5.63;;;1.80;;
13204;SDS011;6667;52.634;9.226;2023-01-01T09:02:12;4.13;;;1.57;;
13204;SDS011;6667;52.634;9.226;2023-01-01T09:04:38;3.97;;;1.63;;
13204;SDS011;6667;52.634;9.226;2023-01-01T09:07:05;3.90;;;1.60;;
13204;SDS011;6667;52.634;9.226;2023-01-01T09:09:33;4.97;;;1.87;;
13204;SDS011;6667;52.634;9.226;2023-01-01T09:12:00;6.53;;;1.50;;
13204;SDS011;6667;52.634;9.226;2023-01-01T09:14:30;6.03;;;1.37;;
13204;SDS011;6667;52.634;9.226;2023-01-01T09:16:57;4.63;;;1.40;;
13204;SDS011;6667;52.634;9.226;2023-01-01T09:19:23;4.23;;;1.17;;
13204;SDS011;6667;52.634;9.226;2023-01-01T09:21:50;2.23;;;1.10;;
13204;SDS011;6667;52.634;9.226;2023-01-01T09:24:17;2.33;;;0.97;;
13204;SDS011;6667;52.634;9.226;2023-01-01T09:26:45;2.80;;;1.13;;
13204;SDS011;6667;52.634;9.226;2023-01-01T09:29:12;3.13;;;1.30;;
13204;SDS011;6667;52.634;9.226;2023-01-01T09:31:42;2.77;;;1.27;;
13204;SDS011;6667;52.634;9.226;2023-01-01T09:34:09;1.47;;;1.30;;
13204;SDS011;6667;52.634;9.226;2023-01-01T09:36:35;1.60;;;1.23;;
13204;SDS011;6667;52.634;9.226;2023-01-01T09:39:02;3.60;;;1.63;;
13204;SDS011;6667;52.634;9.226;2023-01-01T09:41:36;2.67;;;1.20;;
13204;SDS011;6667;52.634;9.226;2023-01-01T09:44:22;5.20;;;1.67;;
13204;SDS011;6667;52.634;9.226;2023-01-01T09:46:58;2.13;;;1.87;;
13204;SDS011;6667;52.634;9.226;2023-01-01T09:49:29;2.80;;;1.43;;
13204;SDS011;6667;52.634;9.226;2023-01-01T09:52:00;2.07;;;1.30;;
13204;SDS011;6667;52.634;9.226;2023-01-01T09:54:30;4.53;;;1.80;;
13204;SDS011;6667;52.634;9.226;2023-01-01T09:57:01;4.07;;;1.90;;
13204;SDS011;6667;52.634;9.226;2023-01-01T09:59:30;3.80;;;1.80;;
13204;SDS011;6667;52.634;9.226;2023-01-01T10:01:58;3.27;;;1.27;;
13204;SDS011;6667;52.634;9.226;2023-01-01T10:04:40;3.77;;;1.50;;
13204;SDS011;6667;52.634;9.226;2023-01-01T10:07:19;3.30;;;1.37;;
13204;SDS011;6667;52.634;9.226;2023-01-01T10:09:56;4.03;;;1.10;;
13204;SDS011;6667;52.634;9.226;2023-01-01T10:12:30;1.33;;;0.70;;
13204;SDS011;6667;52.634;9.226;2023-01-01T10:15:07;1.30;;;0.93;;
13204;SDS011;6667;52.634;9.226;2023-01-01T10:17:41;0.77;;;0.77;;
13204;SDS011;6667;52.634;9.226;2023-01-01T10:20:13;3.53;;;1.20;;
13204;SDS011;6667;52.634;9.226;2023-01-01T10:22:43;1.60;;;0.73;;
13204;SDS011;6667;52.634;9.226;2023-01-01T10:25:14;2.23;;;1.17;;
13204;SDS011;6667;52.634;9.226;2023-01-01T10:27:45;2.60;;;1.30;;
13204;SDS011;6667;52.634;9.226;2023-01-01T10:30:16;3.90;;;1.13;;
13204;SDS011;6667;52.634;9.226;2023-01-01T10:32:45;2.77;;;1.10;;
13204;SDS011;6667;52.634;9.226;2023-01-01T10:35:13;1.60;;;1.20;;
13204;SDS011;6667;52.634;9.226;2023-01-01T10:37:42;1.73;;;1.03;;
13204;SDS011;6667;52.634;9.226;2023-01-01T10:40:12;5.17;;;1.00;;
13204;SDS011;6667;52.634;9.226;2023-01-01T10:42:41;3.43;;;1.10;;
13204;SDS011;6667;52.634;9.226;2023-01-01T10:45:12;2.43;;;0.80;;
13204;SDS011;6667;52.634;9.226;2023-01-01T10:47:40;2.33;;;0.83;;
13204;SDS011;6667;52.634;9.226;2023-01-01T10:50:41;2.57;;;1.10;;
13204;SDS011;6667;52.634;9.226;2023-01-01T10:53:26;5.83;;;1.17;;
13204;SDS011;6667;52.634;9.226;2023-01-01T10:55:58;2.43;;;0.97;;
13204;SDS011;6667;52.634;9.226;2023-01-01T10:58:33;2.80;;;1.00;;
13204;SDS011;6667;52.634;9.226;2023-01-01T11:01:04;2.37;;;0.87;;
13204;SDS011;6667;52.634;9.226;2023-01-01T11:03:32;2.77;;;1.43;;
13204;SDS011;6667;52.634;9.226;2023-01-01T11:06:00;3.23;;;1.50;;
13204;SDS011;6667;52.634;9.226;2023-01-01T11:08:29;3.37;;;1.20;;
13204;SDS011;6667;52.634;9.226;2023-01-01T11:10:58;3.67;;;1.23;;
13204;SDS011;6667;52.634;9.226;2023-01-01T11:13:27;4.73;;;1.40;;
13204;SDS011;6667;52.634;9.226;2023-01-01T11:15:55;3.20;;;1.30;;
13204;SDS011;6667;52.634;9.226;2023-01-01T11:18:24;2.03;;;1.20;;
13204;SDS011;6667;52.634;9.226;2023-01-01T11:20:59;6.30;;;1.40;;
13204;SDS011;6667;52.634;9.226;2023-01-01T11:23:28;4.27;;;1.17;;
13204;SDS011;6667;52.634;9.226;2023-01-01T11:26:01;3.83;;;1.43;;
13204;SDS011;6667;52.634;9.226;2023-01-01T11:28:30;4.23;;;1.37;;
13204;SDS011;6667;52.634;9.226;2023-01-01T11:31:03;3.03;;;1.40;;
13204;SDS011;6667;52.634;9.226;2023-01-01T11:33:38;1.23;;;1.03;;
13204;SDS011;6667;52.634;9.226;2023-01-01T11:36:10;6.13;;;2.47;;
13204;SDS011;6667;52.634;9.226;2023-01-01T11:38:37;4.10;;;1.60;;
13204;SDS011;6667;52.634;9.226;2023-01-01T11:41:04;4.20;;;1.87;;
13204;SDS011;6667;52.634;9.226;2023-01-01T11:43:34;2.77;;;1.83;;
13204;SDS011;6667;52.634;9.226;2023-01-01T11:46:05;4.87;;;1.40;;
13204;SDS011;6667;52.634;9.226;2023-01-01T11:48:35;3.13;;;1.73;;
13204;SDS011;6667;52.634;9.226;2023-01-01T11:51:08;5.67;;;1.73;;
13204;SDS011;6667;52.634;9.226;2023-01-01T11:53:37;4.50;;;1.80;;
13204;SDS011;6667;52.634;9.226;2023-01-01T11:56:07;5.03;;;1.90;;
13204;SDS011;6667;52.634;9.226;2023-01-01T11:58:40;5.13;;;2.00;;
13204;SDS011;6667;52.634;9.226;2023-01-01T12:01:15;6.33;;;1.77;;
13204;SDS011;6667;52.634;9.226;2023-01-01T12:03:46;4.10;;;1.60;;
13204;SDS011;6667;52.634;9.226;2023-01-01T12:06:22;6.53;;;1.80;;
13204;SDS011;6667;52.634;9.226;2023-01-01T12:08:55;5.63;;;1.50;;
13204;SDS011;6667;52.634;9.226;2023-01-01T12:11:28;1.93;;;1.50;;
13204;SDS011;6667;52.634;9.226;2023-01-01T12:14:01;5.10;;;1.50;;
13204;SDS011;6667;52.634;9.226;2023-01-01T12:16:37;3.07;;;1.57;;
13204;SDS011;6667;52.634;9.226;2023-01-01T12:19:11;2.70;;;1.60;;
13204;SDS011;6667;52.634;9.226;2023-01-01T12:21:45;4.23;;;1.70;;
13204;SDS011;6667;52.634;9.226;2023-01-01T12:24:14;4.23;;;1.80;;
13204;SDS011;6667;52.634;9.226;2023-01-01T12:26:47;1.73;;;1.30;;
13204;SDS011;6667;52.634;9.226;2023-01-01T12:29:26;6.83;;;1.23;;
13204;SDS011;6667;52.634;9.226;2023-01-01T12:32:04;2.40;;;1.70;;
13204;SDS011;6667;52.634;9.226;2023-01-01T12:34:35;6.20;;;1.93;;
13204;SDS011;6667;52.634;9.226;2023-01-01T12:37:12;6.53;;;1.90;;
13204;SDS011;6667;52.634;9.226;2023-01-01T12:40:03;5.43;;;2.50;;
13204;SDS011;6667;52.634;9.226;2023-01-01T12:42:55;7.20;;;1.77;;
13204;SDS011;6667;52.634;9.226;2023-01-01T12:45:43;3.30;;;1.50;;
13204;SDS011;6667;52.634;9.226;2023-01-01T12:48:23;4.93;;;1.63;;
13204;SDS011;6667;52.634;9.226;2023-01-01T12:51:04;2.27;;;1.63;;
13204;SDS011;6667;52.634;9.226;2023-01-01T12:53:43;4.70;;;1.73;;
13204;SDS011;6667;52.634;9.226;2023-01-01T12:56:19;3.10;;;1.40;;
13204;SDS011;6667;52.634;9.226;2023-01-01T12:58:53;7.87;;;2.20;;
13204;SDS011;6667;52.634;9.226;2023-01-01T13:01:24;6.20;;;1.73;;
13204;SDS011;6667;52.634;9.226;2023-01-01T13:03:54;4.37;;;1.97;;
13204;SDS011;6667;52.634;9.226;2023-01-01T13:06:25;4.47;;;1.73;;
13204;SDS011;6667;52.634;9.226;2023-01-01T13:09:01;4.00;;;2.07;;
13204;SDS011;6667;52.634;9.226;2023-01-01T13:11:31;2.60;;;1.60;;
13204;SDS011;6667;52.634;9.226;2023-01-01T13:13:59;6.00;;;2.20;;
13204;SDS011;6667;52.634;9.226;2023-01-01T13:16:35;6.50;;;2.10;;
13204;SDS011;6667;52.634;9.226;2023-01-01T13:19:05;3.93;;;1.93;;
13204;SDS011;6667;52.634;9.226;2023-01-01T13:21:32;6.50;;;2.63;;
13204;SDS011;6667;52.634;9.226;2023-01-01T13:24:04;4.87;;;1.83;;
13204;SDS011;6667;52.634;9.226;2023-01-01T13:26:45;4.60;;;1.93;;
13204;SDS011;6667;52.634;9.226;2023-01-01T13:29:32;5.67;;;1.77;;
13204;SDS011;6667;52.634;9.226;2023-01-01T13:32:12;5.13;;;1.90;;
13204;SDS011;6667;52.634;9.226;2023-01-01T13:34:41;5.43;;;1.57;;
13204;SDS011;6667;52.634;9.226;2023-01-01T13:40:28;4.20;;;1.83;;
13204;SDS011;6667;52.634;9.226;2023-01-01T13:43:05;4.10;;;2.17;;
13204;SDS011;6667;52.634;9.226;2023-01-01T13:45:43;6.40;;;2.60;;
13204;SDS011;6667;52.634;9.226;2023-01-01T13:48:19;5.37;;;1.80;;
13204;SDS011;6667;52.634;9.226;2023-01-01T13:51:08;3.70;;;1.70;;
13204;SDS011;6667;52.634;9.226;2023-01-01T13:54:15;5.63;;;1.60;;
13204;SDS011;6667;52.634;9.226;2023-01-01T13:57:18;4.90;;;2.10;;
13204;SDS011;6667;52.634;9.226;2023-01-01T13:59:59;5.50;;;2.20;;
13204;SDS011;6667;52.634;9.226;2023-01-01T14:02:39;8.97;;;2.07;;
13204;SDS011;6667;52.634;9.226;2023-01-01T14:05:12;5.13;;;2.00;;
13204;SDS011;6667;52.634;9.226;2023-01-01T14:07:42;7.83;;;2.17;;
13204;SDS011;6667;52.634;9.226;2023-01-01T14:10:16;4.80;;;1.60;;
13204;SDS011;6667;52.634;9.226;2023-01-01T14:12:50;2.83;;;1.77;;
13204;SDS011;6667;52.634;9.226;2023-01-01T14:15:22;6.00;;;2.37;;
13204;SDS011;6667;52.634;9.226;2023-01-01T14:17:51;3.83;;;2.27;;
13204;SDS011;6667;52.634;9.226;2023-01-01T14:20:21;9.03;;;2.33;;
13204;SDS011;6667;52.634;9.226;2023-01-01T14:22:52;6.67;;;2.43;;
13204;SDS011;6667;52.634;9.226;2023-01-01T14:25:22;5.17;;;2.40;;
13204;SDS011;6667;52.634;9.226;2023-01-01T14:27:53;5.77;;;2.10;;
13204;SDS011;6667;52.634;9.226;2023-01-01T14:30:22;4.80;;;2.13;;
13204;SDS011;6667;52.634;9.226;2023-01-01T14:32:56;2.40;;;1.90;;
13204;SDS011;6667;52.634;9.226;2023-01-01T14:35:23;5.57;;;2.73;;
13204;SDS011;6667;52.634;9.226;2023-01-01T14:37:50;3.70;;;2.47;;
13204;SDS011;6667;52.634;9.226;2023-01-01T14:40:18;4.07;;;2.23;;
13204;SDS011;6667;52.634;9.226;2023-01-01T14:42:53;4.13;;;2.40;;
13204;SDS011;6667;52.634;9.226;2023-01-01T14:45:23;6.23;;;2.60;;
13204;SDS011;6667;52.634;9.226;2023-01-01T14:47:50;8.47;;;2.17;;
13204;SDS011;6667;52.634;9.226;2023-01-01T14:50:23;4.20;;;2.30;;
13204;SDS011;6667;52.634;9.226;2023-01-01T14:52:53;4.60;;;2.80;;
13204;SDS011;6667;52.634;9.226;2023-01-01T14:55:30;5.10;;;2.60;;
13204;SDS011;6667;52.634;9.226;2023-01-01T14:58:00;4.77;;;2.67;;
13204;SDS011;6667;52.634;9.226;2023-01-01T15:00:28;5.40;;;2.97;;
13204;SDS011;6667;52.634;9.226;2023-01-01T15:03:03;5.60;;;2.97;;
13204;SDS011;6667;52.634;9.226;2023-01-01T15:05:32;5.67;;;2.80;;
13204;SDS011;6667;52.634;9.226;2023-01-01T15:08:00;5.07;;;2.77;;
13204;SDS011;6667;52.634;9.226;2023-01-01T15:10:29;4.33;;;2.37;;
13204;SDS011;6667;52.634;9.226;2023-01-01T15:12:57;3.33;;;2.37;;
13204;SDS011;6667;52.634;9.226;2023-01-01T15:15:39;4.40;;;2.37;;
13204;SDS011;6667;52.634;9.226;2023-01-01T15:21:12;3.80;;;2.67;;
13204;SDS011;6667;52.634;9.226;2023-01-01T15:23:50;6.30;;;2.87;;
13204;SDS011;6667;52.634;9.226;2023-01-01T15:26:23;5.67;;;3.10;;